Time;durP1;ratioP1;P1;durP2;ratioP2;P2;SDS_P1;SDS_P2;PMS_P1;PMS_P2;Temp;Humidity;BMP_temperature;BMP_pressure;BME280_temperature;BME280_humidity;BME280_pressure;Samples;Min_cycle;Max_cycle;Signal;HPM_P1;HPM_P2
2021/09/01 00:00:15;;;;;;;;;69.25;53.00;;;;;20.15;44.32;102109.00;5066017;28;45158;-50
2021/09/01 00:02:40;;;;;;;;;64.50;50.00;;;;;20.11;44.38;102116.22;5066265;28;45485;-52
2021/09/01 00:05:08;;;;;;;;;61.25;49.00;;;;;20.09;44.45;102123.41;5066099;28;45240;-51
2021/09/01 00:07:33;;;;;;;;;64.50;49.50;;;;;20.07;45.00;102124.38;5066249;28;46351;-52
2021/09/01 00:09:59;;;;;;;;;65.25;50.25;;;;;20.03;44.83;102131.59;5066032;28;45371;-51
2021/09/01 00:12:24;;;;;;;;;60.50;47.50;;;;;20.00;44.64;102133.47;5066145;28;45264;-53
2021/09/01 00:14:49;;;;;;;;;57.75;44.75;;;;;19.98;44.74;102133.53;5066011;28;45256;-51
2021/09/01 00:17:15;;;;;;;;;63.25;47.50;;;;;19.95;44.80;102134.50;5065755;28;45346;-52
2021/09/01 00:19:40;;;;;;;;;60.25;48.00;;;;;19.91;45.17;102124.88;5065900;28;45319;-51
2021/09/01 00:22:05;;;;;;;;;60.00;48.00;;;;;19.88;45.09;102126.75;5065601;28;45299;-51
2021/09/01 00:24:31;;;;;;;;;60.00;47.75;;;;;19.87;45.64;102125.84;5065847;28;45407;-51
2021/09/01 00:26:56;;;;;;;;;66.50;48.75;;;;;19.83;45.62;102134.03;5065909;28;46008;-52
2021/09/01 00:29:22;;;;;;;;;58.75;47.50;;;;;19.80;45.82;102134.97;5065740;28;45273;-52
2021/09/01 00:31:47;;;;;;;;;56.75;46.00;;;;;19.78;45.45;102135.00;5065786;28;45338;-51
2021/09/01 00:34:12;;;;;;;;;61.75;48.50;;;;;19.74;45.50;102127.16;5065807;28;45465;-52
2021/09/01 00:36:38;;;;;;;;;58.50;46.25;;;;;19.73;45.55;102128.94;5065730;28;46090;-53
2021/09/01 00:39:03;;;;;;;;;60.00;47.75;;;;;19.70;45.94;102123.69;5065561;28;45297;-52
2021/09/01 00:41:29;;;;;;;;;58.75;47.00;;;;;19.69;46.03;102126.44;5081595;28;45244;-52
2021/09/01 00:44:15;;;;;;;;;62.00;48.25;;;;;19.66;45.95;102122.06;5081258;28;45189;-51
2021/09/01 00:46:40;;;;;;;;;58.25;47.50;;;;;19.63;46.32;102122.13;5082459;28;46320;-53
2021/09/01 00:49:05;;;;;;;;;54.50;45.25;;;;;19.58;46.27;102121.41;5080847;28;45280;-51
2021/09/01 00:51:31;;;;;;;;;60.50;46.75;;;;;19.57;45.98;102128.53;5062386;28;45205;-51
2021/09/01 00:53:57;;;;;;;;;54.25;44.75;;;;;19.53;46.48;102121.53;5062256;28;45255;-51
2021/09/01 00:56:23;;;;;;;;;55.25;44.25;;;;;19.52;46.43;102125.16;5062361;28;45247;-52
2021/09/01 00:58:49;;;;;;;;;61.75;46.00;;;;;19.49;46.14;102119.88;5061844;28;46459;-50
2021/09/01 01:01:16;;;;;;;;;58.75;45.00;;;;;19.45;46.81;102123.56;5062037;28;45367;-52
2021/09/01 01:03:49;;;;;;;;;62.50;48.25;;;;;19.42;46.60;102118.31;5060720;28;45723;-53
2021/09/01 01:06:23;;;;;;;;;59.25;45.75;;;;;19.37;46.57;102120.25;5062065;28;46164;-53
2021/09/01 01:08:49;;;;;;;;;62.25;47.00;;;;;19.36;46.49;102124.72;5062159;28;45382;-52
2021/09/01 01:11:15;;;;;;;;;59.75;47.25;;;;;19.34;46.77;102126.53;5062150;28;45455;-51
2021/09/01 01:13:51;;;;;;;;;62.00;47.00;;;;;19.31;46.48;102129.31;5061730;28;45568;-53
2021/09/01 01:16:24;;;;;;;;;59.25;47.50;;;;;19.27;46.83;102127.63;5061617;28;46469;-51
2021/09/01 01:18:50;;;;;;;;;59.75;46.25;;;;;19.24;47.03;102125.94;5061682;28;45305;-53
2021/09/01 01:21:27;;;;;;;;;62.00;48.75;;;;;19.25;47.23;102126.81;5061979;28;45319;-52
2021/09/01 01:23:57;;;;;;;;;63.25;48.50;;;;;19.21;47.30;102120.69;5068716;28;45348;-53
2021/09/01 01:26:23;;;;;;;;;62.50;49.50;;;;;19.18;47.20;102118.09;5081874;28;45274;-53
2021/09/01 01:28:54;;;;;;;;;66.00;50.25;;;;;19.17;47.14;102111.06;5081798;28;45284;-53
2021/09/01 01:31:21;;;;;;;;;65.25;50.50;;;;;19.14;47.25;102109.34;5081838;28;45177;-53
2021/09/01 01:33:47;;;;;;;;;59.00;47.00;;;;;19.12;47.40;102116.50;5082040;28;45188;-53
2021/09/01 01:36:12;;;;;;;;;60.75;47.25;;;;;19.09;47.63;102116.56;5081598;28;46207;-52
2021/09/01 01:38:38;;;;;;;;;60.00;47.25;;;;;19.07;47.45;102115.75;5071606;28;45540;-52
2021/09/01 01:41:03;;;;;;;;;42.50;36.00;;;;;19.06;47.33;102113.16;5077425;28;45310;-51
2021/09/01 01:43:31;;;;;;;;;64.25;47.75;;;;;19.02;47.64;102115.03;5071492;28;45586;-50
2021/09/01 01:45:56;;;;;;;;;54.50;42.50;;;;;19.01;47.37;102113.28;5077156;28;47001;-51
2021/09/01 01:48:22;;;;;;;;;52.25;42.50;;;;;18.98;47.57;102124.00;5081762;28;45395;-52
2021/09/01 01:50:48;;;;;;;;;52.00;41.75;;;;;18.93;47.44;102117.91;5065435;28;45577;-52
2021/09/01 01:53:13;;;;;;;;;58.50;42.00;;;;;18.91;47.74;102109.97;5060247;28;45474;-52
2021/09/01 01:55:39;;;;;;;;;55.00;42.00;;;;;18.93;47.68;102116.16;5061000;28;46400;-48
2021/09/01 01:58:05;;;;;;;;;55.00;42.50;;;;;18.91;47.53;102117.97;5061255;28;45239;-51
2021/09/01 02:00:30;;;;;;;;;54.00;42.00;;;;;18.89;47.54;102119.75;5061270;28;45240;-52
2021/09/01 02:02:56;;;;;;;;;49.00;40.50;;;;;18.87;47.66;102110.06;5061124;28;45493;-48
2021/09/01 02:05:22;;;;;;;;;47.75;37.75;;;;;18.85;47.67;102118.09;5071940;28;47141;-52
2021/09/01 02:07:47;;;;;;;;;48.75;37.75;;;;;18.84;48.02;102117.25;5061201;28;45330;-52
2021/09/01 02:10:12;;;;;;;;;46.25;36.00;;;;;18.82;47.82;102120.88;5061022;28;45923;-52
2021/09/01 02:12:39;;;;;;;;;42.75;33.00;;;;;18.80;48.14;102125.34;5059848;28;45565;-52
2021/09/01 02:15:07;;;;;;;;;40.75;33.00;;;;;18.78;48.28;102122.72;5060877;28;45430;-52
2021/09/01 02:17:34;;;;;;;;;37.75;32.00;;;;;18.76;47.99;102118.38;5060919;28;45311;-58
2021/09/01 02:19:59;;;;;;;;;36.50;29.75;;;;;18.71;48.32;102129.13;5060710;28;45480;-57
2021/09/01 02:22:24;;;;;;;;;34.00;30.00;;;;;18.72;48.22;102130.88;5060651;28;45519;-49
2021/09/01 02:24:50;;;;;;;;;36.75;31.00;;;;;18.68;48.03;102126.56;5060722;28;46116;-52
2021/09/01 02:27:15;;;;;;;;;31.50;30.25;;;;;18.70;48.40;102135.38;5060812;28;45265;-52
2021/09/01 02:29:41;;;;;;;;;42.50;32.50;;;;;18.69;48.36;102133.59;5060805;28;45310;-52
2021/09/01 02:32:07;;;;;;;;;32.50;28.75;;;;;18.67;48.59;102138.13;5060497;28;45235;-52
2021/09/01 02:34:33;;;;;;;;;36.25;33.00;;;;;18.64;48.47;102132.84;5060676;28;45346;-49
2021/09/01 02:36:58;;;;;;;;;38.25;33.25;;;;;18.65;48.53;102138.16;5060919;28;45342;-47
2021/09/01 02:39:24;;;;;;;;;37.75;33.00;;;;;18.64;48.36;102135.53;5062574;28;45263;-52
2021/09/01 02:41:50;;;;;;;;;38.25;33.50;;;;;18.63;48.70;102128.47;5080719;28;45488;-52
2021/09/01 02:44:15;;;;;;;;;39.25;33.25;;;;;18.61;48.54;102138.28;5080709;28;45373;-52
2021/09/01 02:46:41;;;;;;;;;44.25;35.50;;;;;18.60;48.50;102139.19;5080634;28;45320;-52
2021/09/01 02:49:06;;;;;;;;;47.25;37.50;;;;;18.59;48.71;102140.97;5078931;28;45303;-50
2021/09/01 02:51:32;;;;;;;;;47.00;38.00;;;;;18.59;48.67;102130.34;5060416;28;45315;-48
2021/09/01 02:53:57;;;;;;;;;49.00;38.00;;;;;18.58;48.82;102130.34;5060347;28;46290;-51
2021/09/01 02:56:22;;;;;;;;;50.50;38.75;;;;;18.56;48.89;102125.06;5060425;28;45335;-51
2021/09/01 02:58:48;;;;;;;;;51.25;40.00;;;;;18.54;48.77;102123.38;5060282;28;45314;-52
2021/09/01 03:01:13;;;;;;;;;44.50;38.00;;;;;18.52;48.94;102134.91;5060046;28;45240;-51
2021/09/01 03:03:39;;;;;;;;;47.25;37.00;;;;;18.54;48.87;102140.22;5059653;28;46450;-51
2021/09/01 03:06:04;;;;;;;;;50.00;38.25;;;;;18.54;49.17;102139.34;5060257;28;45228;-48
2021/09/01 03:08:29;;;;;;;;;49.50;40.00;;;;;18.50;49.11;102144.75;5060289;28;45134;-51
2021/09/01 03:10:55;;;;;;;;;49.25;38.50;;;;;18.54;48.89;102139.34;5060138;28;45303;-52
2021/09/01 03:13:20;;;;;;;;;47.50;38.25;;;;;18.51;48.98;102137.63;5058589;28;45447;-50
2021/09/01 03:15:45;;;;;;;;;46.75;37.50;;;;;18.52;49.09;102131.41;5059908;28;45232;-50
2021/09/01 03:18:11;;;;;;;;;50.50;40.00;;;;;18.52;49.25;102137.59;5060321;28;45514;-50
2021/09/01 03:20:36;;;;;;;;;52.25;40.50;;;;;18.50;49.46;102122.56;5062599;28;45547;-52
2021/09/01 03:23:01;;;;;;;;;51.25;42.50;;;;;18.51;49.11;102127.88;5059767;28;45292;-49
2021/09/01 03:25:27;;;;;;;;;48.75;37.75;;;;;18.52;49.45;102129.59;5059988;28;45204;-52
2021/09/01 03:27:52;;;;;;;;;45.25;34.00;;;;;18.52;49.34;102126.94;5059954;28;45305;-52
2021/09/01 03:30:17;;;;;;;;;49.75;39.75;;;;;18.52;49.38;102134.06;5059970;28;45211;-50
2021/09/01 03:32:43;;;;;;;;;49.50;38.25;;;;;18.52;49.48;102132.25;5059471;28;46197;-51
2021/09/01 03:35:08;;;;;;;;;39.50;35.50;;;;;18.52;49.37;102126.94;5060091;28;45266;-51
2021/09/01 03:37:34;;;;;;;;;40.50;34.75;;;;;18.52;49.54;102121.63;5059661;28;45316;-52
2021/09/01 03:40:00;;;;;;;;;43.50;34.75;;;;;18.53;49.48;102122.50;5065455;28;45447;-49
2021/09/01 03:42:26;;;;;;;;;43.25;34.50;;;;;18.54;49.54;102126.03;5079832;27;46358;-49
2021/09/01 03:44:51;;;;;;;;;38.25;34.25;;;;;18.55;49.61;102133.09;5079905;28;45376;-50
2021/09/01 03:47:16;;;;;;;;;36.25;33.00;;;;;18.55;49.71;102133.09;5079878;28;45549;-51
2021/09/01 03:49:42;;;;;;;;;39.25;33.00;;;;;18.58;49.64;102133.91;5073431;28;45284;-52
2021/09/01 03:52:07;;;;;;;;;37.00;31.50;;;;;18.57;49.32;102137.47;5059572;28;45411;-52
2021/09/01 03:54:32;;;;;;;;;34.50;31.00;;;;;18.59;49.69;102134.75;5059501;28;45316;-51
2021/09/01 03:56:58;;;;;;;;;36.00;30.25;;;;;18.58;49.57;102133.91;5059597;28;45766;-53
2021/09/01 03:59:23;;;;;;;;;34.00;30.75;;;;;18.58;49.74;102139.22;5059595;28;45564;-51
2021/09/01 04:01:48;;;;;;;;;36.75;30.25;;;;;18.59;49.50;102140.09;5059084;28;45227;-51
2021/09/01 04:04:14;;;;;;;;;31.00;28.50;;;;;18.59;49.88;102133.00;5059402;28;45292;-50
2021/09/01 04:06:39;;;;;;;;;34.75;29.00;;;;;18.58;50.02;102130.34;5059626;28;45569;-52
2021/09/01 04:09:05;;;;;;;;;30.00;30.00;;;;;18.58;49.75;102133.91;5059438;28;45216;-52
2021/09/01 04:11:30;;;;;;;;;27.75;24.75;;;;;18.60;49.78;102140.06;5059142;28;45363;-50
2021/09/01 04:13:56;;;;;;;;;29.50;25.00;;;;;18.60;49.77;102131.19;5059064;28;45248;-50
2021/09/01 04:16:21;;;;;;;;;32.00;24.75;;;;;18.57;49.86;102132.16;5061218;28;45297;-49
2021/09/01 04:18:46;;;;;;;;;28.50;27.00;;;;;18.59;49.88;102133.00;5062695;28;45533;-52
2021/09/01 04:21:12;;;;;;;;;21.50;21.25;;;;;18.60;49.83;102128.53;5062807;28;45370;-52
2021/09/01 04:23:38;;;;;;;;;24.75;23.00;;;;;18.59;49.71;102129.44;5062488;28;45165;-51
2021/09/01 04:26:03;;;;;;;;;29.25;26.25;;;;;18.58;49.79;102128.59;5062854;28;45388;-51
2021/09/01 04:28:29;;;;;;;;;31.50;29.25;;;;;18.59;49.86;102121.47;5062499;28;45315;-51
2021/09/01 04:30:54;;;;;;;;;25.00;23.25;;;;;18.59;49.73;102129.44;5062376;28;46115;-51
2021/09/01 04:33:20;;;;;;;;;30.50;25.50;;;;;18.60;49.93;102136.53;5062406;28;45343;-53
2021/09/01 04:35:45;;;;;;;;;27.25;24.75;;;;;18.60;50.00;102134.75;5062788;28;45335;-51
2021/09/01 04:38:10;;;;;;;;;23.00;22.75;;;;;18.60;49.95;102136.53;5062362;28;45304;-49
2021/09/01 04:40:36;;;;;;;;;25.50;17.75;;;;;18.62;49.85;102134.69;5074444;28;45380;-50
2021/09/01 04:43:01;;;;;;;;;26.00;25.25;;;;;18.62;49.74;102142.69;5082459;28;45476;-47
2021/09/01 04:45:27;;;;;;;;;26.25;22.75;;;;;18.61;50.17;102140.94;5082940;28;45333;-52
2021/09/01 04:47:52;;;;;;;;;26.25;23.75;;;;;18.62;49.96;102150.69;5082419;28;45384;-52
2021/09/01 04:50:17;;;;;;;;;24.25;21.50;;;;;18.62;49.80;102145.34;5069295;28;46121;-50
2021/09/01 04:52:43;;;;;;;;;27.75;25.25;;;;;18.61;50.04;102156.91;5080821;28;45314;-50
2021/09/01 04:55:09;;;;;;;;;26.00;22.25;;;;;18.61;49.90;102154.25;5082779;28;45856;-51
2021/09/01 04:57:34;;;;;;;;;24.50;22.00;;;;;18.63;49.64;102165.75;5082283;28;45251;-52
2021/09/01 04:59:59;;;;;;;;;23.50;21.75;;;;;18.63;49.78;102160.41;5082204;28;45410;-51
2021/09/01 05:02:25;;;;;;;;;26.75;24.25;;;;;18.63;49.70;102157.75;5082098;28;45337;-51
2021/09/01 05:04:50;;;;;;;;;26.25;23.75;;;;;18.63;49.91;102152.44;5082747;28;45237;-52
2021/09/01 05:07:16;;;;;;;;;25.00;21.50;;;;;18.60;50.24;102145.41;5062685;28;45494;-50
2021/09/01 05:09:41;;;;;;;;;29.25;24.50;;;;;18.63;49.83;102149.78;5073470;28;46237;-51
2021/09/01 05:12:06;;;;;;;;;23.25;22.25;;;;;18.56;49.78;102134.88;5082001;28;45610;-51
2021/09/01 05:14:32;;;;;;;;;25.00;23.25;;;;;18.62;49.84;102151.53;5082317;28;45299;-49
2021/09/01 05:16:57;;;;;;;;;28.50;26.00;;;;;18.62;50.15;102153.34;5081998;28;45389;-52
2021/09/01 05:19:24;;;;;;;;;24.25;22.50;;;;;18.61;49.80;102147.13;5081890;28;46149;-52
2021/09/01 05:21:54;;;;;;;;;20.50;19.00;;;;;18.60;50.11;102148.06;5082063;28;45382;-52
2021/09/01 05:24:32;;;;;;;;;23.75;23.00;;;;;18.60;49.75;102144.50;5081855;28;45239;-52
2021/09/01 05:27:11;;;;;;;;;28.25;21.00;;;;;18.60;49.88;102156.06;5081552;28;45236;-50
2021/09/01 05:29:41;;;;;;;;;26.75;23.50;;;;;18.61;50.18;102157.78;5081668;28;46042;-53
2021/09/01 05:32:12;;;;;;;;;24.75;21.50;;;;;18.59;49.96;102153.41;5081575;28;45343;-53
2021/09/01 05:34:38;;;;;;;;;25.75;19.50;;;;;18.62;49.92;102164.00;5081894;28;45347;-53
2021/09/01 05:37:05;;;;;;;;;18.25;15.25;;;;;18.61;49.92;102151.59;5080527;28;45306;-52
2021/09/01 05:39:30;;;;;;;;;24.25;21.75;;;;;18.63;49.91;102166.59;5066914;28;46221;-51
2021/09/01 05:41:57;;;;;;;;;25.50;22.00;;;;;18.64;50.02;102168.34;5081576;28;45339;-51
2021/09/01 05:44:23;;;;;;;;;21.25;20.50;;;;;18.66;50.08;102174.50;5081911;28;45424;-50
2021/09/01 05:46:50;;;;;;;;;16.75;14.00;;;;;18.67;49.77;102172.72;5081437;28;45344;-51
2021/09/01 05:49:16;;;;;;;;;22.50;21.00;;;;;18.69;50.09;102176.19;5078264;28;45507;-51
2021/09/01 05:51:42;;;;;;;;;24.75;21.25;;;;;18.67;50.10;102170.06;5061142;28;45317;-47
2021/09/01 05:54:07;;;;;;;;;21.75;21.00;;;;;18.70;50.19;102177.97;5061333;28;45450;-47
2021/09/01 05:56:35;;;;;;;;;21.50;18.75;;;;;18.72;50.10;102176.16;5061292;28;45312;-51
2021/09/01 05:59:08;;;;;;;;;23.25;21.75;;;;;18.76;50.35;102180.47;5060787;28;46177;-49
2021/09/01 06:01:40;;;;;;;;;21.00;18.75;;;;;18.76;49.86;102180.47;5060897;28;45350;-50
2021/09/01 06:04:08;;;;;;;;;27.75;22.75;;;;;18.80;49.83;102189.25;5061084;28;45244;-47
2021/09/01 06:06:36;;;;;;;;;25.25;22.75;;;;;18.80;50.05;102179.50;5060952;28;45420;-49
2021/09/01 06:09:02;;;;;;;;;25.00;22.00;;;;;18.84;49.81;102185.59;5060909;28;46218;-56
2021/09/01 06:11:29;;;;;;;;;27.75;21.00;;;;;18.86;49.84;102182.91;5060980;28;45212;-48
2021/09/01 06:13:54;;;;;;;;;24.50;20.00;;;;;18.88;50.06;102181.97;5060915;28;45347;-46
2021/09/01 06:16:20;;;;;;;;;23.75;21.75;;;;;18.91;50.10;102175.72;5060667;28;45463;-50
2021/09/01 06:18:45;;;;;;;;;22.50;21.25;;;;;18.91;50.31;102176.56;5060866;28;45303;-48
2021/09/01 06:21:11;;;;;;;;;23.50;22.00;;;;;18.91;49.99;102168.56;5060646;28;45305;-47
2021/09/01 06:23:36;;;;;;;;;16.75;16.50;;;;;18.94;50.27;102172.94;5060765;28;45468;-46
2021/09/01 06:26:03;;;;;;;;;21.75;20.75;;;;;18.94;49.78;102167.63;5060802;28;45287;-47
2021/09/01 06:28:28;;;;;;;;;23.00;19.75;;;;;18.97;50.12;102164.88;5060443;28;45466;-50
2021/09/01 06:30:53;;;;;;;;;23.00;19.00;;;;;18.98;49.89;102158.63;5060430;28;45186;-53
2021/09/01 06:33:19;;;;;;;;;21.75;19.50;;;;;19.00;50.23;102160.34;5060724;28;45557;-54
2021/09/01 06:35:44;;;;;;;;;24.25;20.00;;;;;18.98;50.20;102158.63;5060693;28;45247;-53
2021/09/01 06:38:09;;;;;;;;;23.25;21.25;;;;;19.04;50.48;102161.13;5059586;28;45484;-54
2021/09/01 06:40:35;;;;;;;;;25.25;21.00;;;;;19.05;50.08;102156.69;5072560;28;45220;-54
2021/09/01 06:43:00;;;;;;;;;21.50;19.00;;;;;19.06;49.89;102155.78;5080950;28;45221;-55
2021/09/01 06:45:26;;;;;;;;;22.50;19.75;;;;;19.07;50.15;102152.16;5081069;28;45194;-54
2021/09/01 06:47:53;;;;;;;;;19.25;18.25;;;;;19.06;49.73;102153.97;5080549;28;45892;-54
2021/09/01 06:50:21;;;;;;;;;18.50;15.75;;;;;19.08;50.27;102162.81;5068777;28;45238;-55
2021/09/01 06:52:47;;;;;;;;;25.75;22.75;;;;;19.09;50.12;102159.19;5074703;28;45387;-54
2021/09/01 06:55:14;;;;;;;;;20.75;20.25;;;;;19.08;49.87;102152.16;5060421;28;45257;-55
2021/09/01 06:57:40;;;;;;;;;21.25;20.25;;;;;19.11;49.93;102161.84;5042038;28;45394;-55
2021/09/01 07:00:11;;;;;;;;;22.00;17.75;;;;;19.12;50.15;102169.78;5060244;28;45239;-56
2021/09/01 07:02:37;;;;;;;;;21.00;20.25;;;;;19.12;50.15;102164.47;5060260;28;45311;-56
2021/09/01 07:05:02;;;;;;;;;25.75;22.50;;;;;19.15;50.16;102172.34;5060278;28;45378;-56
2021/09/01 07:07:28;;;;;;;;;22.75;21.25;;;;;19.15;49.90;102166.16;5075496;28;47667;-55
2021/09/01 07:09:53;;;;;;;;;20.50;18.50;;;;;19.20;49.89;102163.38;5060430;28;45443;-55
2021/09/01 07:12:19;;;;;;;;;22.25;21.25;;;;;19.22;50.08;102164.19;5060230;28;45347;-54
2021/09/01 07:14:44;;;;;;;;;21.00;19.50;;;;;19.22;50.30;102165.09;5060096;28;45402;-55
2021/09/01 07:17:09;;;;;;;;;29.00;22.75;;;;;19.25;49.99;102157.00;5059939;28;45372;-55
2021/09/01 07:19:35;;;;;;;;;30.00;27.50;;;;;19.28;50.23;102148.03;5060140;28;45386;-55
2021/09/01 07:22:00;;;;;;;;;30.00;24.00;;;;;19.30;50.08;102156.88;5058614;28;45349;-54
2021/09/01 07:24:26;;;;;;;;;29.50;26.00;;;;;19.33;50.17;102167.44;5059971;28;46789;-56
2021/09/01 07:26:51;;;;;;;;;40.50;29.00;;;;;19.35;49.99;102162.09;5059797;28;45819;-56
2021/09/01 07:29:16;;;;;;;;;35.00;30.25;;;;;19.39;50.02;102153.94;5068161;28;45762;-56
2021/09/01 07:31:42;;;;;;;;;39.00;31.75;;;;;19.41;49.68;102152.09;5058457;28;45310;-56
2021/09/01 07:34:07;;;;;;;;;31.50;30.25;;;;;19.36;50.17;102135.38;5072995;28;45146;-57
2021/09/01 07:36:33;;;;;;;;;32.25;27.50;;;;;19.46;49.85;102157.31;5079960;28;45335;-55
2021/09/01 07:38:58;;;;;;;;;37.50;31.25;;;;;19.49;49.94;102147.41;5066944;28;45351;-55
2021/09/01 07:41:23;;;;;;;;;29.00;28.75;;;;;19.52;50.25;102150.91;5078624;28;45407;-55
2021/09/01 07:43:49;;;;;;;;;33.50;26.00;;;;;19.55;50.26;102156.16;5079887;28;45650;-55
2021/09/01 07:46:14;;;;;;;;;24.50;20.75;;;;;19.56;49.90;102155.22;5059697;28;45955;-55
2021/09/01 07:48:40;;;;;;;;;25.00;20.25;;;;;19.58;49.67;102153.41;5071332;28;45283;-55
2021/09/01 07:51:05;;;;;;;;;22.50;21.25;;;;;19.62;49.70;102149.72;5062794;28;45345;-54
2021/09/01 07:53:31;;;;;;;;;26.25;21.25;;;;;19.64;49.73;102156.75;5063311;28;45257;-54
2021/09/01 07:55:56;;;;;;;;;23.25;21.25;;;;;19.67;50.32;102155.78;5062945;28;46168;-55
2021/09/01 07:58:22;;;;;;;;;24.00;23.50;;;;;19.70;49.86;102155.69;5053215;28;45381;-55
2021/09/01 08:00:47;;;;;;;;;24.00;20.25;;;;;19.74;49.94;102165.34;5062951;28;45241;-54
2021/09/01 08:03:13;;;;;;;;;24.25;18.50;;;;;19.77;50.12;102162.59;5063102;28;45336;-54
2021/09/01 08:05:38;;;;;;;;;24.75;22.50;;;;;19.81;49.69;102169.59;5062925;28;45395;-55
2021/09/01 08:08:04;;;;;;;;;15.00;14.25;;;;;19.86;50.08;102163.25;5062988;28;45214;-54
2021/09/01 08:10:30;;;;;;;;;14.75;12.75;;;;;19.88;49.87;102156.09;5062864;28;45311;-53
2021/09/01 08:12:55;;;;;;;;;24.25;19.50;;;;;19.89;49.76;102158.72;5062820;28;45166;-54
2021/09/01 08:15:21;;;;;;;;;21.00;20.00;;;;;19.95;49.70;102158.53;5062701;28;45577;-55
2021/09/01 08:17:46;;;;;;;;;25.50;20.00;;;;;19.98;49.64;102154.88;5062746;28;45174;-54
2021/09/01 08:20:13;;;;;;;;;22.00;20.50;;;;;20.05;50.02;102166.22;5062654;28;45347;-54
2021/09/01 08:22:38;;;;;;;;;23.50;21.00;;;;;20.08;49.65;102166.13;5062604;28;45247;-53
2021/09/01 08:25:05;;;;;;;;;26.00;21.25;;;;;20.14;49.51;102168.63;5062541;28;45419;-54
2021/09/01 08:27:30;;;;;;;;;21.50;20.00;;;;;20.18;49.52;102166.72;5062523;28;45323;-54
2021/09/01 08:29:55;;;;;;;;;26.50;22.25;;;;;20.22;49.66;102160.34;5062608;28;45399;-54
2021/09/01 08:32:21;;;;;;;;;24.00;22.00;;;;;20.26;49.97;102162.88;5062380;28;45312;-55
2021/09/01 08:34:46;;;;;;;;;20.50;19.75;;;;;20.33;49.77;102165.34;5062563;28;45312;-53
2021/09/01 08:37:12;;;;;;;;;22.25;21.50;;;;;20.38;49.79;102166.94;5062534;28;45287;-55
2021/09/01 08:39:37;;;;;;;;;24.25;23.00;;;;;20.42;49.95;102165.91;5066374;28;45274;-53
2021/09/01 08:42:03;;;;;;;;;24.50;21.50;;;;;20.46;49.26;102164.00;5082630;27;45323;-52
2021/09/01 08:44:29;;;;;;;;;22.50;19.00;;;;;20.52;49.49;102166.47;5082647;28;45327;-54
2021/09/01 08:46:57;;;;;;;;;18.00;17.00;;;;;20.56;49.63;102168.09;5082393;28;45272;-54
2021/09/01 08:49:25;;;;;;;;;20.50;19.25;;;;;20.63;49.33;102174.13;5078663;28;45288;-55
2021/09/01 08:51:50;;;;;;;;;18.25;15.75;;;;;20.67;49.55;102167.75;5062031;28;45645;-55
2021/09/01 08:54:16;;;;;;;;;23.50;20.00;;;;;20.71;49.62;102169.44;5062234;28;46366;-54
2021/09/01 08:56:42;;;;;;;;;21.00;19.75;;;;;20.75;49.71;102168.41;5062251;28;45683;-55
2021/09/01 08:59:08;;;;;;;;;24.75;18.25;;;;;20.77;49.55;102177.22;5062092;28;45398;-55
2021/09/01 09:01:53;;;;;;;;;21.50;20.00;;;;;20.83;49.19;102172.59;5061178;28;45323;-55
2021/09/01 09:04:32;;;;;;;;;18.75;17.50;;;;;20.88;49.49;102173.31;5061933;28;46224;-54
2021/09/01 09:07:00;;;;;;;;;21.00;18.25;;;;;20.92;49.10;102169.63;5061919;28;45541;-54
2021/09/01 09:09:30;;;;;;;;;23.25;15.75;;;;;20.97;49.12;102166.75;5062277;28;45394;-54
2021/09/01 09:11:57;;;;;;;;;20.25;18.00;;;;;21.01;48.90;102163.94;5061613;28;45228;-55
2021/09/01 09:14:28;;;;;;;;;20.25;17.75;;;;;21.06;49.14;102153.97;5062065;28;45358;-54
2021/09/01 09:17:10;;;;;;;;;19.00;17.50;;;;;21.11;49.13;102165.34;5061572;28;45383;-55
2021/09/01 09:19:54;;;;;;;;;22.00;18.50;;;;;21.19;48.99;102161.53;5061891;28;45335;-55
2021/09/01 09:22:31;;;;;;;;;18.00;17.75;;;;;21.25;49.26;102150.63;5069903;28;45531;-55
2021/09/01 09:25:25;;;;;;;;;22.25;20.25;;;;;21.34;48.89;102152.94;5081824;28;46199;-55
2021/09/01 09:27:56;;;;;;;;;19.00;18.75;;;;;21.41;49.35;102157.13;5081653;28;45368;-56
2021/09/01 09:30:45;;;;;;;;;17.75;15.75;;;;;21.52;48.99;102159.41;5081985;28;45354;-56
2021/09/01 09:33:16;;;;;;;;;22.25;17.25;;;;;21.60;49.11;102153.81;5062849;28;45441;-55
2021/09/01 09:35:59;;;;;;;;;20.50;16.25;;;;;21.70;49.09;102148.97;5073089;28;45524;-56
2021/09/01 09:38:43;;;;;;;;;17.25;13.75;;;;;21.82;48.79;102145.78;5073479;28;45379;-56
2021/09/01 09:41:24;;;;;;;;;21.25;16.50;;;;;21.91;48.73;102139.19;5078004;28;45315;-56
2021/09/01 09:43:58;;;;;;;;;21.00;19.75;;;;;22.00;48.38;102137.97;5081601;28;45426;-56
2021/09/01 09:46:24;;;;;;;;;18.25;14.50;;;;;22.12;48.39;102136.63;5081299;28;46145;-56
2021/09/01 09:48:51;;;;;;;;;21.25;19.25;;;;;22.22;48.33;102144.19;5081529;28;45459;-56
2021/09/01 09:51:19;;;;;;;;;23.00;18.50;;;;;22.34;48.53;102141.94;5061817;27;45451;-55
2021/09/01 09:53:49;;;;;;;;;20.25;18.00;;;;;22.45;48.38;102144.19;5061318;28;45323;-57
2021/09/01 09:56:19;;;;;;;;;15.75;14.50;;;;;22.53;48.30;102156.34;5068088;28;46005;-56
2021/09/01 09:58:51;;;;;;;;;20.75;19.00;;;;;22.66;48.58;102153.13;5066439;28;45540;-56
2021/09/01 10:01:18;;;;;;;;;17.25;16.75;;;;;22.76;48.17;102148.25;5081264;28;45567;-56
2021/09/01 10:03:43;;;;;;;;;22.00;17.50;;;;;22.86;48.33;102144.22;5081324;28;45371;-56
2021/09/01 10:06:13;;;;;;;;;16.75;15.50;;;;;22.99;48.00;102149.91;5081239;28;45985;-54
2021/09/01 10:08:39;;;;;;;;;16.00;16.00;;;;;23.10;47.72;102142.25;5081296;28;45533;-57
2021/09/01 10:11:09;;;;;;;;;22.00;20.50;;;;;23.20;47.76;102148.13;5081328;28;45321;-56
2021/09/01 10:13:38;;;;;;;;;17.75;16.75;;;;;23.31;47.76;102144.94;5079762;28;45547;-55
2021/09/01 10:16:25;;;;;;;;;17.50;16.25;;;;;23.44;47.49;102134.53;5080998;28;45292;-55
2021/09/01 10:19:02;;;;;;;;;17.00;15.50;;;;;23.58;47.44;102137.41;5081075;28;45406;-55
2021/09/01 10:21:30;;;;;;;;;18.25;15.25;;;;;23.65;47.15;102122.78;5080850;28;45256;-57
2021/09/01 10:23:56;;;;;;;;;14.25;13.25;;;;;23.84;47.31;102133.47;5071465;28;45338;-55
2021/09/01 10:26:33;;;;;;;;;18.75;18.75;;;;;23.98;47.00;102135.53;5075567;28;46299;-56
2021/09/01 10:29:00;;;;;;;;;18.75;17.75;;;;;24.10;46.88;102139.44;5081042;28;45226;-56
2021/09/01 10:31:33;;;;;;;;;27.75;25.00;;;;;24.25;47.19;102136.91;5079620;28;45342;-55
2021/09/01 10:34:17;;;;;;;;;17.50;15.50;;;;;24.38;47.04;102121.03;5081068;28;45458;-56
2021/09/01 10:36:48;;;;;;;;;15.50;15.25;;;;;24.57;46.89;102121.00;5079792;28;45361;-55
2021/09/01 10:39:30;;;;;;;;;15.50;14.00;;;;;24.75;46.61;102113.81;5066112;28;45387;-56
2021/09/01 10:41:57;;;;;;;;;21.00;18.25;;;;;24.92;46.39;102104.88;5080851;28;45363;-56
2021/09/01 10:44:46;;;;;;;;;18.00;16.00;;;;;25.15;46.57;102103.59;5080648;28;45481;-57
2021/09/01 10:47:11;;;;;;;;;16.50;15.75;;;;;25.33;46.10;102106.25;5080241;28;45255;-56
2021/09/01 10:49:55;;;;;;;;;15.75;14.50;;;;;25.53;45.90;102092.56;5074198;28;45227;-55
2021/09/01 10:52:22;;;;;;;;;15.00;13.00;;;;;25.75;46.47;102104.81;5071360;28;45404;-56
2021/09/01 10:54:49;;;;;;;;;17.00;15.75;;;;;26.01;45.94;102105.13;5060468;28;45226;-56
2021/09/01 10:57:27;;;;;;;;;17.00;15.25;;;;;26.27;45.72;102103.63;5059858;28;46433;-56
2021/09/01 10:59:57;;;;;;;;;15.00;15.00;;;;;26.57;46.24;102100.91;5060132;28;45485;-55
2021/09/01 11:02:23;;;;;;;;;14.75;12.75;;;;;26.85;45.70;102093.00;5059947;28;45253;-54
2021/09/01 11:04:52;;;;;;;;;13.00;11.25;;;;;27.13;45.60;102093.94;5060296;28;45166;-55
2021/09/01 11:07:29;;;;;;;;;13.50;13.50;;;;;27.46;45.63;102095.47;5059951;28;46015;-55
2021/09/01 11:10:05;;;;;;;;;14.50;12.50;;;;;27.79;44.92;102100.50;5060056;28;45268;-55